createdAt,value
2022-11-27T00:00:21.172Z,99807.63
2022-11-27T00:01:42.982Z,99807.67
2022-11-27T00:02:44.849Z,99803.74
2022-11-27T00:03:47.634Z,99800.64
2022-11-27T00:04:49.420Z,99802.97
2022-11-27T00:05:55.845Z,99797.46
2022-11-27T00:06:57.684Z,99796.30
2022-11-27T00:07:59.503Z,99795.27
2022-11-27T00:09:11.551Z,99794.33
2022-11-27T00:10:13.277Z,99794.35
2022-11-27T00:11:23.725Z,99795.13
2022-11-27T00:12:25.474Z,99794.30
2022-11-27T00:13:27.582Z,99797.76
2022-11-27T00:14:29.712Z,99798.51
2022-11-27T00:15:31.518Z,99796.94
2022-11-27T00:16:33.797Z,99798.69
2022-11-27T00:17:35.616Z,99795.34
2022-11-27T00:18:37.664Z,99794.63
2022-11-27T00:19:39.621Z,99792.99
2022-11-27T00:20:41.493Z,99794.25
2022-11-27T00:21:43.227Z,99798.63
2022-11-27T00:22:44.949Z,99797.18
2022-11-27T00:23:46.698Z,99795.73
2022-11-27T00:24:48.408Z,99797.23
2022-11-27T00:25:53.812Z,99798.79
2022-11-27T00:26:55.512Z,99802.73
2022-11-27T00:27:57.359Z,99804.84
2022-11-27T00:28:59.285Z,99801.52
2022-11-27T00:30:01.090Z,99802.67
2022-11-27T00:31:06.833Z,99803.06
2022-11-27T00:32:08.642Z,99807.20
2022-11-27T00:33:10.396Z,99807.82
2022-11-27T00:34:12.182Z,99805.79
2022-11-27T00:35:14.072Z,99803.59
2022-11-27T00:36:16.646Z,99799.41
2022-11-27T00:37:18.384Z,99800.27
2022-11-27T00:38:20.622Z,99799.94
2022-11-27T00:39:22.345Z,99799.04
2022-11-27T00:40:24.091Z,99801.23
2022-11-27T00:41:29.018Z,99802.63
2022-11-27T00:42:30.869Z,99802.33
2022-11-27T00:43:43.190Z,99802.44
2022-11-27T00:44:46.219Z,99802.50
2022-11-27T00:45:51.038Z,99802.11
2022-11-27T00:46:52.863Z,99800.48
2022-11-27T00:47:54.826Z,99801.44
2022-11-27T00:48:57.712Z,99801.05
2022-11-27T00:49:59.518Z,99804.61
2022-11-27T00:51:08.678Z,99804.95
2022-11-27T00:52:10.417Z,99807.66
2022-11-27T00:53:12.182Z,99805.77
2022-11-27T00:54:13.969Z,99804.95
2022-11-27T00:55:15.739Z,99801.52
2022-11-27T00:56:21.709Z,99804.66
2022-11-27T00:57:23.445Z,99804.77
2022-11-27T00:58:26.408Z,99803.05
2022-11-27T00:59:28.131Z,99806.86
2022-11-27T01:00:29.974Z,99808.36
2022-11-27T01:01:36.690Z,99806.11
2022-11-27T01:02:38.568Z,99809.38
2022-11-27T01:03:40.409Z,99810.23
2022-11-27T01:04:46.170Z,99810.48
2022-11-27T01:05:47.926Z,99810.08
2022-11-27T01:06:49.978Z,99811.45
2022-11-27T01:07:51.814Z,99809.69
2022-11-27T01:08:54.418Z,99807.39
2022-11-27T01:09:56.183Z,99807.27
2022-11-27T01:10:58.965Z,99808.32
2022-11-27T01:12:00.851Z,99809.14
2022-11-27T01:13:02.597Z,99807.25
2022-11-27T01:14:13.044Z,99801.93
2022-11-27T01:15:14.792Z,99806.04
2022-11-27T01:16:20.336Z,99801.70
2022-11-27T01:17:22.206Z,99802.20
2022-11-27T01:18:23.952Z,99805.91
2022-11-27T01:19:26.760Z,99803.65
2022-11-27T01:20:28.543Z,99804.33
2022-11-27T01:21:34.330Z,99805.80
2022-11-27T01:22:36.531Z,99806.02
2022-11-27T01:23:38.364Z,99808.37
2022-11-27T01:24:40.263Z,99806.42
2022-11-27T01:25:42.195Z,99806.67
2022-11-27T01:26:45.011Z,99807.18
2022-11-27T01:27:46.900Z,99808.14
2022-11-27T01:28:52.291Z,99807.73
2022-11-27T01:29:54.032Z,99805.11
2022-11-27T01:30:56.313Z,99806.11
2022-11-27T01:31:58.258Z,99810.60
2022-11-27T01:33:00.088Z,99809.97
2022-11-27T01:34:06.176Z,99807.95
2022-11-27T01:35:08.618Z,99808.00
2022-11-27T01:36:13.316Z,99806.86
2022-11-27T01:37:15.203Z,99811.14
2022-11-27T01:38:17.006Z,99809.17
2022-11-27T01:39:21.006Z,99806.73
2022-11-27T01:40:23.340Z,99809.42
2022-11-27T01:41:27.702Z,99811.52
2022-11-27T01:42:29.443Z,99810.76
2022-11-27T01:43:46.090Z,99808.42
2022-11-27T01:44:51.720Z,99805.08
2022-11-27T01:45:53.665Z,99810.02
2022-11-27T01:47:07.012Z,99807.63
2022-11-27T01:48:13.380Z,99809.39
2022-11-27T01:49:38.706Z,99810.76
2022-11-27T01:50:40.848Z,99813.48
2022-11-27T01:52:01.147Z,99810.86
2022-11-27T01:53:13.004Z,99811.80
2022-11-27T01:54:17.104Z,99813.65
2022-11-27T01:55:25.844Z,99808.66
2022-11-27T01:56:30.122Z,99806.27
2022-11-27T01:57:45.683Z,99808.86
2022-11-27T01:58:49.239Z,99807.80
2022-11-27T01:59:54.853Z,99811.13
2022-11-27T02:00:56.763Z,99809.52
2022-11-27T02:01:58.680Z,99815.49
2022-11-27T02:03:00.687Z,99814.55
2022-11-27T02:04:02.748Z,99814.79
2022-11-27T02:05:05.141Z,99815.84
2022-11-27T02:06:07.185Z,99817.16
2022-11-27T02:07:09.320Z,99820.65
2022-11-27T02:08:14.987Z,99822.24
2022-11-27T02:09:16.901Z,99819.70
2022-11-27T02:10:19.279Z,99816.97
2022-11-27T02:11:33.891Z,99818.34
2022-11-27T02:13:01.874Z,99815.08
2022-11-27T02:14:18.876Z,99814.35
2022-11-27T02:15:34.149Z,99821.30
2022-11-27T02:17:00.601Z,99821.42
2022-11-27T02:18:12.988Z,99823.25
2022-11-27T02:19:52.019Z,99820.23
2022-11-27T02:21:10.845Z,99817.13
2022-11-27T02:22:49.321Z,99820.36
2022-11-27T02:23:59.599Z,99817.73
2022-11-27T02:25:13.655Z,99818.88
2022-11-27T02:26:49.180Z,99816.85
2022-11-27T02:28:03.680Z,99819.29
2022-11-27T02:29:12.248Z,99821.88
2022-11-27T02:30:14.722Z,99819.02
2022-11-27T02:31:25.766Z,99819.52
2022-11-27T02:32:39.825Z,99822.05
2022-11-27T02:33:50.120Z,99818.77
2022-11-27T02:35:02.762Z,99819.61
2022-11-27T02:36:14.716Z,99825.39
2022-11-27T02:37:28.384Z,99825.02
2022-11-27T02:38:38.507Z,99824.94
2022-11-27T02:40:06.708Z,99825.11
2022-11-27T02:41:18.989Z,99826.84
2022-11-27T02:42:22.107Z,99826.86
2022-11-27T02:43:33.166Z,99825.85
2022-11-27T02:44:44.537Z,99827.27
2022-11-27T02:45:52.137Z,99825.70
2022-11-27T02:46:55.796Z,99827.60
2022-11-27T02:47:59.590Z,99824.81
2022-11-27T02:49:11.061Z,99827.39
2022-11-27T02:50:20.043Z,99824.29
2022-11-27T02:51:35.506Z,99831.52
2022-11-27T02:52:38.119Z,99825.50
2022-11-27T02:53:50.265Z,99827.27
2022-11-27T02:54:57.743Z,99829.39
2022-11-27T02:56:05.329Z,99831.65
2022-11-27T02:57:10.760Z,99826.92
2022-11-27T02:58:20.003Z,99832.57
2022-11-27T02:59:26.563Z,99833.78
2022-11-27T03:00:30.763Z,99837.69
2022-11-27T03:01:39.801Z,99836.23
2022-11-27T03:02:50.442Z,99834.41
2022-11-27T03:03:58.224Z,99835.79
2022-11-27T03:05:05.589Z,99834.65
2022-11-27T03:06:14.850Z,99836.14
2022-11-27T03:07:26.852Z,99836.27
2022-11-27T03:08:34.516Z,99835.34
2022-11-27T03:09:42.459Z,99835.31
2022-11-27T03:11:05.945Z,99834.67
2022-11-27T03:12:19.941Z,99834.38
2022-11-27T03:13:38.409Z,99832.69
2022-11-27T03:14:43.796Z,99832.89
2022-11-27T03:16:17.373Z,99832.60
2022-11-27T03:17:52.010Z,99833.37
2022-11-27T03:19:17.411Z,99831.46
2022-11-27T03:20:37.324Z,99830.84
2022-11-27T03:21:43.904Z,99830.79
2022-11-27T03:22:45.842Z,99829.76
2022-11-27T03:23:47.669Z,99829.49
2022-11-27T03:24:51.498Z,99828.36
2022-11-27T03:25:55.297Z,99825.95
2022-11-27T03:27:02.702Z,99827.44
2022-11-27T03:28:10.031Z,99822.64
2022-11-27T03:29:21.859Z,99821.94
2022-11-27T03:30:23.694Z,99827.20
2022-11-27T03:31:26.994Z,99823.04
2022-11-27T03:32:30.499Z,99823.07
2022-11-27T03:33:32.796Z,99824.44
2022-11-27T03:34:35.723Z,99823.55
2022-11-27T03:35:37.530Z,99823.22
2022-11-27T03:36:39.399Z,99825.10
2022-11-27T03:37:41.553Z,99823.34
2022-11-27T03:38:45.762Z,99821.90
2022-11-27T03:39:48.793Z,99822.67
2022-11-27T03:41:09.855Z,99824.48
2022-11-27T03:42:39.003Z,99826.33
2022-11-27T03:44:07.424Z,99823.92
2022-11-27T03:45:38.760Z,99829.14
2022-11-27T03:47:01.461Z,99827.39
2022-11-27T03:48:23.961Z,99827.41
2022-11-27T03:49:46.528Z,99827.45
2022-11-27T03:51:01.419Z,99828.09
2022-11-27T03:52:33.566Z,99825.36
2022-11-27T03:54:01.024Z,99825.44
2022-11-27T03:55:31.977Z,99823.98
2022-11-27T03:56:39.990Z,99820.74
2022-11-27T03:58:09.534Z,99819.80
2022-11-27T03:59:23.072Z,99820.77
2022-11-27T04:00:25.272Z,99820.24
2022-11-27T04:01:29.364Z,99820.49
2022-11-27T04:02:44.425Z,99818.30
2022-11-27T04:03:46.310Z,99819.11
2022-11-27T04:04:48.543Z,99817.65
2022-11-27T04:05:50.487Z,99818.59
2022-11-27T04:06:52.928Z,99818.31
2022-11-27T04:07:57.066Z,99814.05
2022-11-27T04:09:00.156Z,99815.36
2022-11-27T04:10:01.907Z,99809.89
2022-11-27T04:11:04.029Z,99808.91
2022-11-27T04:12:05.964Z,99813.88
2022-11-27T04:13:08.273Z,99812.04
2022-11-27T04:14:10.025Z,99818.45
2022-11-27T04:15:12.638Z,99814.54
2022-11-27T04:16:14.554Z,99815.50
2022-11-27T04:17:16.309Z,99817.70
2022-11-27T04:18:18.495Z,99815.29
2022-11-27T04:19:20.322Z,99818.98
2022-11-27T04:20:22.060Z,99819.73
2022-11-27T04:21:23.811Z,99820.61
2022-11-27T04:22:25.585Z,99813.77
2022-11-27T04:23:27.399Z,99817.72
2022-11-27T04:24:31.018Z,99816.35
2022-11-27T04:25:33.007Z,99818.38
2022-11-27T04:26:34.742Z,99820.39
2022-11-27T04:27:36.517Z,99819.00
2022-11-27T04:28:38.388Z,99820.15
2022-11-27T04:29:40.425Z,99821.67
2022-11-27T04:30:42.150Z,99820.08
2022-11-27T04:31:43.920Z,99820.34
2022-11-27T04:32:45.726Z,99819.86
2022-11-27T04:33:47.459Z,99822.34
2022-11-27T04:34:49.356Z,99823.78
2022-11-27T04:35:51.373Z,99821.99
2022-11-27T04:36:53.103Z,99822.25
2022-11-27T04:37:58.050Z,99823.63
2022-11-27T04:38:59.789Z,99819.32
2022-11-27T04:40:01.860Z,99815.45
2022-11-27T04:41:03.769Z,99820.77
2022-11-27T04:42:05.752Z,99823.57
2022-11-27T04:43:07.825Z,99823.09
2022-11-27T04:44:11.451Z,99817.79
2022-11-27T04:45:14.469Z,99815.22
2022-11-27T04:46:16.215Z,99817.20
2022-11-27T04:47:18.283Z,99815.98
2022-11-27T04:48:20.022Z,99811.78
2022-11-27T04:49:21.735Z,99817.67
2022-11-27T04:50:23.692Z,99814.94
2022-11-27T04:51:25.460Z,99815.84
2022-11-27T04:52:27.535Z,99815.23
2022-11-27T04:53:29.277Z,99815.52
2022-11-27T04:54:31.157Z,99819.89
2022-11-27T04:55:33.195Z,99820.39
2022-11-27T04:56:34.928Z,99820.08
2022-11-27T04:57:36.741Z,99820.48
2022-11-27T04:58:38.551Z,99818.79
2022-11-27T04:59:40.922Z,99822.25
2022-11-27T05:00:42.745Z,99821.33
2022-11-27T05:01:44.593Z,99823.39
2022-11-27T05:02:46.376Z,99823.58
2022-11-27T05:03:48.968Z,99825.05
2022-11-27T05:04:50.682Z,99822.02
2022-11-27T05:05:56.944Z,99821.73
2022-11-27T05:06:58.737Z,99819.44
2022-11-27T05:08:00.548Z,99818.19
2022-11-27T05:09:02.539Z,99818.70
2022-11-27T05:10:06.340Z,99819.98
2022-11-27T05:11:13.809Z,99815.05
2022-11-27T05:12:15.611Z,99812.77
2022-11-27T05:13:17.415Z,99813.73
2022-11-27T05:14:20.515Z,99817.27
2022-11-27T05:15:22.254Z,99817.42
2022-11-27T05:16:24.127Z,99815.76
2022-11-27T05:17:26.117Z,99816.16
2022-11-27T05:18:27.958Z,99813.90
2022-11-27T05:19:31.883Z,99812.69
2022-11-27T05:20:33.642Z,99817.41
2022-11-27T05:21:35.479Z,99816.52
2022-11-27T05:22:37.243Z,99817.05
2022-11-27T05:23:38.948Z,99814.27
2022-11-27T05:24:41.018Z,99818.02
2022-11-27T05:25:42.977Z,99814.14
2022-11-27T05:26:44.962Z,99814.67
2022-11-27T05:27:46.692Z,99812.20
2022-11-27T05:28:48.445Z,99814.37
2022-11-27T05:29:50.214Z,99810.83
2022-11-27T05:30:51.995Z,99814.20
2022-11-27T05:31:53.915Z,99806.95
2022-11-27T05:32:55.810Z,99807.39
2022-11-27T05:33:57.955Z,99803.77
2022-11-27T05:34:59.706Z,99800.52
2022-11-27T05:36:01.567Z,99802.30
2022-11-27T05:37:03.483Z,99805.74
2022-11-27T05:38:05.282Z,99806.77
2022-11-27T05:39:08.954Z,99807.77
2022-11-27T05:40:10.923Z,99807.16
2022-11-27T05:41:12.711Z,99808.24
2022-11-27T05:42:14.595Z,99810.02
2022-11-27T05:43:16.456Z,99811.33
2022-11-27T05:44:23.779Z,99807.52
2022-11-27T05:45:25.556Z,99803.81
2022-11-27T05:46:27.729Z,99804.42
2022-11-27T05:47:30.003Z,99803.52
2022-11-27T05:48:31.829Z,99804.62
2022-11-27T05:49:33.683Z,99802.81
2022-11-27T05:50:35.504Z,99805.39
2022-11-27T05:51:37.345Z,99808.11
2022-11-27T05:52:39.127Z,99806.04
2022-11-27T05:53:41.540Z,99804.76
2022-11-27T05:54:43.273Z,99809.25
2022-11-27T05:55:44.975Z,99810.80
2022-11-27T05:56:47.217Z,99808.40
2022-11-27T05:57:49.364Z,99809.48
2022-11-27T05:58:51.689Z,99811.57
2022-11-27T05:59:53.504Z,99809.30
2022-11-27T06:00:55.247Z,99813.34
2022-11-27T06:01:57.020Z,99806.42
2022-11-27T06:02:59.091Z,99809.27
2022-11-27T06:04:01.064Z,99807.89
2022-11-27T06:05:02.859Z,99807.23
2022-11-27T06:06:09.474Z,99801.55
2022-11-27T06:07:11.297Z,99803.77
2022-11-27T06:08:13.129Z,99806.85
2022-11-27T06:09:14.857Z,99805.91
2022-11-27T06:10:16.601Z,99810.91
2022-11-27T06:11:21.471Z,99806.44
2022-11-27T06:12:23.312Z,99803.11
2022-11-27T06:13:25.032Z,99803.15
2022-11-27T06:14:26.754Z,99803.44
2022-11-27T06:15:28.514Z,99801.31
2022-11-27T06:16:30.381Z,99799.98
2022-11-27T06:17:32.114Z,99799.21
2022-11-27T06:18:34.592Z,99794.96
2022-11-27T06:19:36.368Z,99796.64
2022-11-27T06:20:43.420Z,99795.64
2022-11-27T06:21:46.623Z,99795.30
2022-11-27T06:22:48.489Z,99789.73
2022-11-27T06:23:55.548Z,99785.90
2022-11-27T06:24:57.351Z,99786.86
2022-11-27T06:25:59.124Z,99785.40
2022-11-27T06:27:00.882Z,99783.44
2022-11-27T06:28:02.824Z,99781.63
2022-11-27T06:29:05.039Z,99778.00
2022-11-27T06:30:07.589Z,99778.33
2022-11-27T06:31:17.476Z,99780.59
2022-11-27T06:32:19.692Z,99780.96
2022-11-27T06:33:21.438Z,99778.04
2022-11-27T06:34:23.170Z,99781.02
2022-11-27T06:35:25.098Z,99781.39
2022-11-27T06:36:30.700Z,99781.47
2022-11-27T06:37:32.555Z,99775.98
2022-11-27T06:38:37.100Z,99777.05
2022-11-27T06:39:39.019Z,99775.36
2022-11-27T06:40:40.776Z,99776.45
2022-11-27T06:41:43.404Z,99776.38
2022-11-27T06:42:45.111Z,99777.02
2022-11-27T06:43:47.494Z,99780.33
2022-11-27T06:44:49.261Z,99782.27
2022-11-27T06:45:59.195Z,99782.42
2022-11-27T06:47:01.201Z,99780.84
2022-11-27T06:48:02.948Z,99781.20
2022-11-27T06:49:05.236Z,99781.23
2022-11-27T06:50:07.637Z,99781.58
2022-11-27T06:51:13.376Z,99780.82
2022-11-27T06:52:15.332Z,99784.80
2022-11-27T06:53:17.429Z,99779.02
2022-11-27T06:54:19.324Z,99776.91
2022-11-27T06:55:21.100Z,99779.20
2022-11-27T06:56:25.758Z,99775.58
2022-11-27T06:57:27.666Z,99775.16
2022-11-27T06:58:31.187Z,99776.23
2022-11-27T06:59:33.199Z,99778.97
2022-11-27T07:00:34.974Z,99779.09
2022-11-27T07:01:36.742Z,99779.13
2022-11-27T07:02:38.841Z,99781.81
2022-11-27T07:03:41.544Z,99781.98
2022-11-27T07:04:43.323Z,99786.98
2022-11-27T07:05:45.063Z,99784.88
2022-11-27T07:06:46.822Z,99785.84
2022-11-27T07:07:48.715Z,99784.81
2022-11-27T07:08:50.749Z,99785.38
2022-11-27T07:09:52.512Z,99787.27
2022-11-27T07:10:54.345Z,99789.46
2022-11-27T07:11:56.122Z,99783.95
2022-11-27T07:12:57.999Z,99788.97
2022-11-27T07:14:04.611Z,99788.75
2022-11-27T07:15:07.524Z,99786.63
2022-11-27T07:16:11.874Z,99786.14
2022-11-27T07:17:13.671Z,99786.02
2022-11-27T07:18:15.647Z,99791.13
2022-11-27T07:19:17.424Z,99788.64
2022-11-27T07:20:19.283Z,99793.14
2022-11-27T07:21:21.767Z,99794.69
2022-11-27T07:22:23.537Z,99797.52
2022-11-27T07:23:25.393Z,99796.35
2022-11-27T07:24:27.157Z,99797.08
2022-11-27T07:25:28.982Z,99802.46
2022-11-27T07:26:31.030Z,99799.45
2022-11-27T07:27:32.843Z,99797.80
2022-11-27T07:28:35.038Z,99798.05
2022-11-27T07:29:36.896Z,99802.77
2022-11-27T07:30:38.748Z,99802.12
2022-11-27T07:31:40.527Z,99807.13
2022-11-27T07:32:42.325Z,99809.23
2022-11-27T07:33:44.408Z,99808.94
2022-11-27T07:34:46.125Z,99808.45
2022-11-27T07:35:47.857Z,99807.89
2022-11-27T07:36:49.571Z,99803.05
2022-11-27T07:37:51.309Z,99807.96
2022-11-27T07:38:53.195Z,99807.61
2022-11-27T07:40:02.503Z,99805.95
2022-11-27T07:41:06.459Z,99808.69
2022-11-27T07:42:37.575Z,99809.02
2022-11-27T07:43:31.495Z,99811.15
2022-11-27T07:44:33.283Z,99810.25
2022-11-27T07:45:35.096Z,99807.85
2022-11-27T07:46:36.965Z,99809.72
2022-11-27T07:47:39.472Z,99812.26
2022-11-27T07:48:41.769Z,99811.39
2022-11-27T07:49:43.601Z,99812.00
2022-11-27T07:50:45.489Z,99810.09
2022-11-27T07:51:47.241Z,99811.98
2022-11-27T07:52:48.975Z,99810.76
2022-11-27T07:53:51.971Z,99810.86
2022-11-27T07:54:54.009Z,99815.55
2022-11-27T07:56:00.068Z,99810.95
2022-11-27T07:57:02.370Z,99810.73
2022-11-27T07:58:04.124Z,99812.64
2022-11-27T07:59:05.844Z,99812.16
2022-11-27T08:00:08.490Z,99811.14
2022-11-27T08:01:15.205Z,99811.55
2022-11-27T08:02:17.095Z,99809.06
2022-11-27T08:03:18.902Z,99810.49
2022-11-27T08:04:21.005Z,99808.52
2022-11-27T08:05:22.913Z,99808.04
2022-11-27T08:06:27.537Z,99810.08
2022-11-27T08:07:30.697Z,99808.88
2022-11-27T08:08:33.084Z,99808.87
2022-11-27T08:09:34.834Z,99807.38
2022-11-27T08:10:38.863Z,99803.67
2022-11-27T08:11:40.604Z,99805.98
2022-11-27T08:12:42.656Z,99803.70
2022-11-27T08:13:44.474Z,99803.13
2022-11-27T08:14:46.231Z,99805.39
2022-11-27T08:15:48.241Z,99805.78
2022-11-27T08:16:50.090Z,99799.83
2022-11-27T08:17:51.889Z,99800.59
2022-11-27T08:18:54.597Z,99798.90
2022-11-27T08:19:56.368Z,99798.23
2022-11-27T08:21:00.379Z,99799.84
2022-11-27T08:22:02.137Z,99803.42
2022-11-27T08:23:04.635Z,99800.86
2022-11-27T08:24:06.731Z,99803.73
2022-11-27T08:25:09.099Z,99799.31
2022-11-27T08:26:12.594Z,99802.02
2022-11-27T08:27:16.284Z,99804.67
2022-11-27T08:28:18.013Z,99804.46
2022-11-27T08:29:19.891Z,99804.80
2022-11-27T08:30:23.706Z,99807.61
2022-11-27T08:31:25.771Z,99813.13
2022-11-27T08:32:27.585Z,99813.36
2022-11-27T08:33:30.796Z,99811.85
2022-11-27T08:34:32.858Z,99812.80
2022-11-27T08:35:34.678Z,99814.82
2022-11-27T08:36:36.653Z,99813.81
2022-11-27T08:37:38.419Z,99810.17
2022-11-27T08:38:40.271Z,99809.12
2022-11-27T08:39:42.041Z,99811.89
2022-11-27T08:40:44.372Z,99814.41
2022-11-27T08:41:46.087Z,99815.86
2022-11-27T08:42:47.836Z,99811.68
2022-11-27T08:43:49.867Z,99814.34
2022-11-27T08:44:51.791Z,99813.19
2022-11-27T08:45:56.045Z,99815.67
2022-11-27T08:46:57.803Z,99813.62
2022-11-27T08:47:59.617Z,99815.83
2022-11-27T08:49:01.565Z,99815.44
2022-11-27T08:50:03.684Z,99814.10
2022-11-27T08:51:08.297Z,99813.55
2022-11-27T08:52:11.231Z,99813.91
2022-11-27T08:53:14.035Z,99817.45
2022-11-27T08:54:16.176Z,99818.40
2022-11-27T08:55:18.173Z,99816.15
2022-11-27T08:56:23.546Z,99821.25
2022-11-27T08:57:25.953Z,99819.41
2022-11-27T08:58:27.684Z,99821.35
2022-11-27T08:59:29.447Z,99820.35
2022-11-27T09:00:32.201Z,99823.95
2022-11-27T09:01:33.972Z,99822.81
2022-11-27T09:02:35.951Z,99821.98
2022-11-27T09:03:38.293Z,99823.15
2022-11-27T09:04:40.371Z,99826.97
2022-11-27T09:05:44.723Z,99827.94
2022-11-27T09:06:48.985Z,99828.68
2022-11-27T09:07:51.386Z,99829.59
2022-11-27T09:08:53.208Z,99830.66
2022-11-27T09:09:54.969Z,99825.10
2022-11-27T09:11:01.632Z,99824.36
2022-11-27T09:12:03.821Z,99826.93
2022-11-27T09:13:05.570Z,99827.21
2022-11-27T09:14:08.713Z,99825.94
2022-11-27T09:15:13.781Z,99825.21
2022-11-27T09:16:19.173Z,99824.30
2022-11-27T09:17:20.956Z,99821.73
2022-11-27T09:18:23.464Z,99822.48
2022-11-27T09:19:26.034Z,99823.56
2022-11-27T09:20:27.834Z,99823.88
2022-11-27T09:21:30.677Z,99827.80
2022-11-27T09:22:34.449Z,99826.27
2022-11-27T09:23:37.704Z,99828.65
2022-11-27T09:24:39.852Z,99827.88
2022-11-27T09:25:41.977Z,99828.80
2022-11-27T09:26:44.849Z,99825.66
2022-11-27T09:27:46.615Z,99824.73
2022-11-27T09:28:48.503Z,99824.28
2022-11-27T09:29:50.256Z,99825.61
2022-11-27T09:30:56.846Z,99824.46
2022-11-27T09:31:58.681Z,99825.77
2022-11-27T09:33:02.123Z,99827.33
2022-11-27T09:34:04.862Z,99825.84
2022-11-27T09:35:06.944Z,99824.59
2022-11-27T09:36:11.694Z,99828.73
2022-11-27T09:37:13.458Z,99830.33
2022-11-27T09:38:15.223Z,99824.71
2022-11-27T09:39:19.410Z,99829.94
2022-11-27T09:40:21.383Z,99823.98
2022-11-27T09:41:50.291Z,99826.79
2022-11-27T09:43:04.293Z,99826.04
2022-11-27T09:44:22.358Z,99825.30
2022-11-27T09:45:27.114Z,99827.19
2022-11-27T09:46:38.995Z,99827.91
2022-11-27T09:47:48.089Z,99823.13
2022-11-27T09:48:52.635Z,99826.60
2022-11-27T09:50:03.335Z,99825.10
2022-11-27T09:51:15.648Z,99824.05
2022-11-27T09:52:42.692Z,99822.48
2022-11-27T09:53:56.257Z,99820.29
2022-11-27T09:55:13.292Z,99819.97
2022-11-27T09:56:18.867Z,99821.29
2022-11-27T09:57:29.392Z,99824.66
2022-11-27T09:58:39.233Z,99820.11
2022-11-27T09:59:50.651Z,99816.60
2022-11-27T10:00:52.470Z,99814.52
2022-11-27T10:01:54.374Z,99812.65
2022-11-27T10:02:56.971Z,99810.58
2022-11-27T10:04:02.164Z,99811.12
2022-11-27T10:05:34.015Z,99808.34
2022-11-27T10:07:09.829Z,99807.05
2022-11-27T10:08:47.641Z,99805.05
2022-11-27T10:10:01.258Z,99802.08
2022-11-27T10:11:44.494Z,99801.01
2022-11-27T10:13:05.845Z,99799.90
2022-11-27T10:14:32.594Z,99797.05
2022-11-27T10:15:52.937Z,99798.92
2022-11-27T10:17:08.791Z,99799.88
2022-11-27T10:18:16.213Z,99800.41
2022-11-27T10:19:36.463Z,99799.64
2022-11-27T10:20:46.797Z,99795.27
2022-11-27T10:21:59.983Z,99793.06
2022-11-27T10:23:23.108Z,99794.27
2022-11-27T10:24:36.699Z,99795.27
2022-11-27T10:25:49.444Z,99791.13
2022-11-27T10:26:58.333Z,99797.02
2022-11-27T10:28:06.220Z,99790.64
2022-11-27T10:29:31.993Z,99790.06
2022-11-27T10:30:52.765Z,99791.37
2022-11-27T10:32:04.314Z,99793.42
2022-11-27T10:33:20.230Z,99785.09
2022-11-27T10:34:40.625Z,99783.24
2022-11-27T10:35:47.916Z,99782.80
2022-11-27T10:36:54.291Z,99780.56
2022-11-27T10:38:22.407Z,99780.66
2022-11-27T10:39:59.283Z,99785.08
2022-11-27T10:41:07.789Z,99781.14
2022-11-27T10:42:26.213Z,99778.23
2022-11-27T10:43:27.965Z,99774.98
2022-11-27T10:44:50.855Z,99770.96
2022-11-27T10:46:18.781Z,99771.88
2022-11-27T10:47:28.535Z,99769.52
2022-11-27T10:48:33.353Z,99774.71
2022-11-27T10:49:40.304Z,99772.83
2022-11-27T10:50:42.757Z,99771.22
2022-11-27T10:51:44.515Z,99770.25
2022-11-27T10:53:06.240Z,99769.58
2022-11-27T10:54:23.145Z,99763.77
2022-11-27T10:55:44.488Z,99759.29
2022-11-27T10:57:22.604Z,99755.56
2022-11-27T10:58:46.549Z,99758.42
2022-11-27T11:00:19.850Z,99760.85
2022-11-27T11:01:24.594Z,99755.80
2022-11-27T11:02:32.709Z,99753.60
2022-11-27T11:03:35.515Z,99753.27
2022-11-27T11:04:38.647Z,99751.83
2022-11-27T11:06:04.787Z,99753.29
2022-11-27T11:07:02.727Z,99750.86
2022-11-27T11:08:15.806Z,99751.23
2022-11-27T11:09:32.877Z,99751.13
2022-11-27T11:10:38.727Z,99749.96
2022-11-27T11:11:41.043Z,99751.13
2022-11-27T11:12:42.850Z,99753.72
2022-11-27T11:13:46.999Z,99752.80
2022-11-27T11:14:57.633Z,99753.59
2022-11-27T11:16:18.445Z,99753.70
2022-11-27T11:17:26.913Z,99751.89
2022-11-27T11:18:35.605Z,99751.77
2022-11-27T11:19:39.016Z,99753.90
2022-11-27T11:20:47.239Z,99755.89
2022-11-27T11:21:49.085Z,99753.36
2022-11-27T11:22:51.767Z,99753.74
2022-11-27T11:24:00.357Z,99757.63
2022-11-27T11:25:02.432Z,99755.67
2022-11-27T11:26:15.605Z,99758.73
2022-11-27T11:27:30.594Z,99757.71
2022-11-27T11:28:40.953Z,99755.31
2022-11-27T11:30:17.041Z,99752.19
2022-11-27T11:31:23.556Z,99749.55
2022-11-27T11:32:28.031Z,99746.23
2022-11-27T11:33:30.686Z,99742.83
2022-11-27T11:34:33.886Z,99744.79
2022-11-27T11:35:37.050Z,99742.79
2022-11-27T11:36:38.999Z,99746.13
2022-11-27T11:37:46.191Z,99745.04
2022-11-27T11:38:49.571Z,99745.04
2022-11-27T11:40:20.311Z,99746.63
2022-11-27T11:41:23.825Z,99745.02
2022-11-27T11:42:29.654Z,99748.94
2022-11-27T11:43:37.448Z,99746.96
2022-11-27T11:44:40.668Z,99749.65
2022-11-27T11:45:48.904Z,99747.61
2022-11-27T11:46:53.394Z,99748.21
2022-11-27T11:47:58.400Z,99748.84
2022-11-27T11:49:01.934Z,99750.00
2022-11-27T11:50:03.970Z,99751.41
2022-11-27T11:51:27.851Z,99749.00
2022-11-27T11:52:59.389Z,99748.19
2022-11-27T11:54:18.448Z,99745.79
2022-11-27T11:55:31.040Z,99741.13
2022-11-27T11:56:44.844Z,99735.34
2022-11-27T11:58:03.864Z,99740.85
2022-11-27T11:59:34.034Z,99734.60
2022-11-27T12:01:04.803Z,99731.81
2022-11-27T12:02:23.742Z,99731.97
2022-11-27T12:04:02.704Z,99732.74
2022-11-27T12:05:43.236Z,99730.14
2022-11-27T12:07:01.534Z,99730.86
2022-11-27T12:08:30.620Z,99732.05
2022-11-27T12:09:48.870Z,99731.09
2022-11-27T12:11:15.339Z,99728.49
2022-11-27T12:12:35.553Z,99728.09
2022-11-27T12:14:03.874Z,99725.01
2022-11-27T12:15:11.462Z,99726.47
2022-11-27T12:16:39.930Z,99723.89
2022-11-27T12:18:06.560Z,99724.20
2022-11-27T12:19:49.647Z,99720.92
2022-11-27T12:20:54.133Z,99722.27
2022-11-27T12:22:20.385Z,99721.62
2022-11-27T12:23:40.607Z,99718.29
2022-11-27T12:24:54.319Z,99715.34
2022-11-27T12:26:11.617Z,99715.63
2022-11-27T12:27:49.990Z,99716.48
2022-11-27T12:29:46.039Z,99713.28
2022-11-27T12:31:05.681Z,99715.91
2022-11-27T12:32:36.989Z,99712.67
2022-11-27T12:33:50.444Z,99714.80
2022-11-27T12:35:10.810Z,99714.59
2022-11-27T12:36:50.371Z,99709.41
2022-11-27T12:38:10.206Z,99710.94
2022-11-27T12:39:30.626Z,99708.63
2022-11-27T12:40:50.114Z,99710.61
2022-11-27T12:42:21.964Z,99710.57
2022-11-27T12:43:27.516Z,99711.71
2022-11-27T12:44:47.430Z,99711.88
2022-11-27T12:46:12.663Z,99709.13
2022-11-27T12:47:29.326Z,99710.19
2022-11-27T12:48:39.175Z,99710.81
2022-11-27T12:49:46.237Z,99711.39
2022-11-27T12:50:56.653Z,99709.65
2022-11-27T12:52:21.313Z,99707.60
2022-11-27T12:53:41.741Z,99711.42
2022-11-27T12:54:56.214Z,99714.26
2022-11-27T12:56:10.658Z,99719.68
2022-11-27T12:57:20.680Z,99716.75
2022-11-27T12:58:31.252Z,99720.49
2022-11-27T12:59:46.353Z,99719.95
2022-11-27T13:00:50.380Z,99722.99
2022-11-27T13:02:28.924Z,99726.70
2022-11-27T13:03:42.222Z,99727.57
2022-11-27T13:04:51.788Z,99724.39
2022-11-27T13:06:06.334Z,99722.63
2022-11-27T13:07:24.670Z,99723.95
2022-11-27T13:08:36.749Z,99729.42
2022-11-27T13:10:09.448Z,99722.98